sensor_id;sensor_type;location;lat;lon;timestamp;pressure;altitude;pressure_sealevel;temperature;humidity
75312;BME280;63906;55.686;37.532;2023-08-06T00:03:31;99799.88;;;22.83;65.91
75312;BME280;63906;55.686;37.532;2023-08-06T00:08:32;99819.81;;;23.13;65.15
75312;BME280;63906;55.686;37.532;2023-08-06T00:13:32;99816.59;;;22.95;65.99
75312;BME280;63906;55.686;37.532;2023-08-06T00:18:33;99822.41;;;22.77;66.14
75312;BME280;63906;55.686;37.532;2023-08-06T00:23:33;99829.31;;;22.47;66.86
75312;BME280;63906;55.686;37.532;2023-08-06T00:28:34;99814.72;;;22.18;67.32
75312;BME280;63906;55.686;37.532;2023-08-06T00:33:34;99824.81;;;22.06;67.89
75312;BME280;63906;55.686;37.532;2023-08-06T00:38:35;99824.72;;;21.90;68.55
75312;BME280;63906;55.686;37.532;2023-08-06T00:43:36;99837.00;;;21.81;68.76
75312;BME280;63906;55.686;37.532;2023-08-06T00:48:36;99816.22;;;21.61;69.26
75312;BME280;63906;55.686;37.532;2023-08-06T00:53:37;99826.13;;;21.56;69.31
75312;BME280;63906;55.686;37.532;2023-08-06T00:58:39;99840.00;;;21.53;69.82
75312;BME280;63906;55.686;37.532;2023-08-06T01:03:40;99835.69;;;21.46;70.01
75312;BME280;63906;55.686;37.532;2023-08-06T01:13:48;99845.81;;;21.39;70.13
75312;BME280;63906;55.686;37.532;2023-08-06T01:18:50;99824.19;;;21.24;70.50
75312;BME280;63906;55.686;37.532;2023-08-06T01:23:50;99826.84;;;21.19;70.93
75312;BME280;63906;55.686;37.532;2023-08-06T01:33:53;99833.44;;;21.06;72.11
75312;BME280;63906;55.686;37.532;2023-08-06T01:38:54;99842.47;;;21.00;71.97
75312;BME280;63906;55.686;37.532;2023-08-06T01:43:54;99845.91;;;20.95;72.25
75312;BME280;63906;55.686;37.532;2023-08-06T01:48:55;99856.28;;;20.92;72.55
75312;BME280;63906;55.686;37.532;2023-08-06T01:53:55;99843.06;;;20.80;72.65
75312;BME280;63906;55.686;37.532;2023-08-06T01:58:56;99856.69;;;20.79;73.03
75312;BME280;63906;55.686;37.532;2023-08-06T02:03:56;99856.09;;;20.72;74.01
75312;BME280;63906;55.686;37.532;2023-08-06T02:08:57;99853.59;;;20.65;74.01
75312;BME280;63906;55.686;37.532;2023-08-06T02:13:57;99857.41;;;20.69;74.33
75312;BME280;63906;55.686;37.532;2023-08-06T02:18:58;99865.16;;;20.70;74.68
75312;BME280;63906;55.686;37.532;2023-08-06T02:23:58;99826.69;;;20.50;74.66
75312;BME280;63906;55.686;37.532;2023-08-06T02:28:59;99865.16;;;20.70;75.10
75312;BME280;63906;55.686;37.532;2023-08-06T02:33:59;99867.91;;;20.76;75.23
75312;BME280;63906;55.686;37.532;2023-08-06T02:39:00;99860.09;;;20.74;75.27
75312;BME280;63906;55.686;37.532;2023-08-06T02:44:00;99870.66;;;20.81;74.92
75312;BME280;63906;55.686;37.532;2023-08-06T02:49:01;99865.59;;;20.84;75.26
75312;BME280;63906;55.686;37.532;2023-08-06T02:54:01;99862.97;;;20.89;75.02
75312;BME280;63906;55.686;37.532;2023-08-06T02:59:02;99857.09;;;20.92;75.48
75312;BME280;63906;55.686;37.532;2023-08-06T03:04:03;99858.81;;;21.04;75.32
75312;BME280;63906;55.686;37.532;2023-08-06T03:09:03;99870.13;;;21.11;75.42
75312;BME280;63906;55.686;37.532;2023-08-06T03:14:04;99868.25;;;21.11;75.37
75312;BME280;63906;55.686;37.532;2023-08-06T03:19:04;99852.78;;;21.13;75.69
75312;BME280;63906;55.686;37.532;2023-08-06T03:24:05;99861.78;;;21.29;75.55
75312;BME280;63906;55.686;37.532;2023-08-06T03:29:05;99859.69;;;21.36;75.56
75312;BME280;63906;55.686;37.532;2023-08-06T03:34:05;99875.91;;;21.52;75.36
75312;BME280;63906;55.686;37.532;2023-08-06T03:39:06;99865.47;;;21.55;75.49
75312;BME280;63906;55.686;37.532;2023-08-06T03:44:07;99877.66;;;21.73;74.98
75312;BME280;63906;55.686;37.532;2023-08-06T03:49:07;99867.03;;;21.83;75.05
75312;BME280;63906;55.686;37.532;2023-08-06T03:54:08;99863.56;;;21.88;74.81
75312;BME280;63906;55.686;37.532;2023-08-06T03:59:08;99855.88;;;22.01;74.71
75312;BME280;63906;55.686;37.532;2023-08-06T04:04:09;99862.97;;;22.13;74.84
75312;BME280;63906;55.686;37.532;2023-08-06T04:09:09;99858.69;;;22.22;74.35
75312;BME280;63906;55.686;37.532;2023-08-06T04:14:10;99863.88;;;22.39;74.60
75312;BME280;63906;55.686;37.532;2023-08-06T04:19:10;99854.53;;;22.46;74.45
75312;BME280;63906;55.686;37.532;2023-08-06T04:24:11;99840.06;;;22.52;74.13
75312;BME280;63906;55.686;37.532;2023-08-06T04:29:11;99857.28;;;22.72;73.97
75312;BME280;63906;55.686;37.532;2023-08-06T04:34:12;99859.00;;;22.88;73.77
75312;BME280;63906;55.686;37.532;2023-08-06T04:39:12;99847.19;;;22.89;73.45
75312;BME280;63906;55.686;37.532;2023-08-06T04:44:13;99861.19;;;23.06;73.07
75312;BME280;63906;55.686;37.532;2023-08-06T04:49:13;99867.63;;;23.21;72.82
75312;BME280;63906;55.686;37.532;2023-08-06T04:54:14;99841.84;;;23.20;72.64
75312;BME280;63906;55.686;37.532;2023-08-06T04:59:18;99858.50;;;23.47;72.17
75312;BME280;63906;55.686;37.532;2023-08-06T05:04:19;99860.69;;;23.66;71.45
75312;BME280;63906;55.686;37.532;2023-08-06T05:09:19;99853.94;;;23.99;70.38
75312;BME280;63906;55.686;37.532;2023-08-06T05:14:20;99852.56;;;24.11;70.34
75312;BME280;63906;55.686;37.532;2023-08-06T05:19:20;99862.72;;;24.25;69.68
75312;BME280;63906;55.686;37.532;2023-08-06T05:24:21;99848.69;;;24.33;69.30
75312;BME280;63906;55.686;37.532;2023-08-06T05:29:21;99843.31;;;24.43;68.34
75312;BME280;63906;55.686;37.532;2023-08-06T05:34:22;99842.34;;;24.78;67.30
75312;BME280;63906;55.686;37.532;2023-08-06T05:39:22;99830.59;;;25.03;66.14
75312;BME280;63906;55.686;37.532;2023-08-06T05:44:23;99846.47;;;25.44;65.05
75312;BME280;63906;55.686;37.532;2023-08-06T05:49:23;99822.78;;;25.41;65.11
75312;BME280;63906;55.686;37.532;2023-08-06T05:54:24;99823.81;;;25.45;65.54
75312;BME280;63906;55.686;37.532;2023-08-06T05:59:24;99828.66;;;25.48;65.24
75312;BME280;63906;55.686;37.532;2023-08-06T06:04:25;99799.09;;;25.38;65.11
75312;BME280;63906;55.686;37.532;2023-08-06T06:09:25;99831.09;;;25.79;64.42
75312;BME280;63906;55.686;37.532;2023-08-06T06:14:26;99806.94;;;25.63;64.15
75312;BME280;63906;55.686;37.532;2023-08-06T06:19:26;99838.31;;;25.83;63.92
75312;BME280;63906;55.686;37.532;2023-08-06T06:24:27;99833.16;;;25.87;63.82
75312;BME280;63906;55.686;37.532;2023-08-06T06:29:27;99828.47;;;25.97;62.97
75312;BME280;63906;55.686;37.532;2023-08-06T06:34:28;99813.88;;;25.98;63.16
75312;BME280;63906;55.686;37.532;2023-08-06T06:39:28;99818.53;;;25.93;63.53
75312;BME280;63906;55.686;37.532;2023-08-06T06:44:29;99799.81;;;25.77;63.82
75312;BME280;63906;55.686;37.532;2023-08-06T06:49:29;99814.09;;;26.02;63.26
75312;BME280;63906;55.686;37.532;2023-08-06T06:54:30;99823.41;;;25.91;64.22
75312;BME280;63906;55.686;37.532;2023-08-06T06:59:30;99811.13;;;25.80;64.52
75312;BME280;63906;55.686;37.532;2023-08-06T07:04:31;99789.91;;;25.73;64.64
75312;BME280;63906;55.686;37.532;2023-08-06T07:09:31;99794.50;;;25.96;64.08
75312;BME280;63906;55.686;37.532;2023-08-06T07:14:32;99805.50;;;26.00;63.07
75312;BME280;63906;55.686;37.532;2023-08-06T07:19:32;99808.31;;;25.90;63.20
75312;BME280;63906;55.686;37.532;2023-08-06T07:24:33;99805.59;;;25.90;70.21
75312;BME280;63906;55.686;37.532;2023-08-06T07:29:33;99815.31;;;25.91;71.31
75312;BME280;63906;55.686;37.532;2023-08-06T07:34:34;99792.53;;;26.02;70.32
75312;BME280;63906;55.686;37.532;2023-08-06T07:39:34;99805.25;;;26.20;74.13
75312;BME280;63906;55.686;37.532;2023-08-06T07:44:35;99805.06;;;26.36;75.47
75312;BME280;63906;55.686;37.532;2023-08-06T07:49:35;99802.63;;;26.58;74.35
75312;BME280;63906;55.686;37.532;2023-08-06T07:54:36;99791.03;;;26.57;73.91
75312;BME280;63906;55.686;37.532;2023-08-06T07:59:36;99775.78;;;26.67;68.89
75312;BME280;63906;55.686;37.532;2023-08-06T08:04:37;99793.28;;;27.07;59.95
75312;BME280;63906;55.686;37.532;2023-08-06T08:09:37;99793.47;;;27.29;70.06
75312;BME280;63906;55.686;37.532;2023-08-06T08:14:38;99792.31;;;27.63;72.22
75312;BME280;63906;55.686;37.532;2023-08-06T08:19:40;99787.66;;;27.82;69.94
75312;BME280;63906;55.686;37.532;2023-08-06T08:24:40;99790.97;;;28.07;68.40
75312;BME280;63906;55.686;37.532;2023-08-06T08:29:41;99783.94;;;28.20;70.97
75312;BME280;63906;55.686;37.532;2023-08-06T08:34:42;99770.91;;;28.22;75.17
75312;BME280;63906;55.686;37.532;2023-08-06T08:39:44;99778.09;;;28.54;73.01
75312;BME280;63906;55.686;37.532;2023-08-06T08:44:45;99774.44;;;28.72;72.06
75312;BME280;63906;55.686;37.532;2023-08-06T08:49:46;99710.50;;;28.49;59.95
75312;BME280;63906;55.686;37.532;2023-08-06T08:54:48;99763.50;;;29.00;69.14
75312;BME280;63906;55.686;37.532;2023-08-06T08:59:52;99761.13;;;28.84;69.84
75312;BME280;63906;55.686;37.532;2023-08-06T09:04:52;99774.56;;;28.89;65.65
75312;BME280;63906;55.686;37.532;2023-08-06T09:09:54;99770.28;;;29.11;64.82
75312;BME280;63906;55.686;37.532;2023-08-06T09:14:55;99756.59;;;29.47;61.09
75312;BME280;63906;55.686;37.532;2023-08-06T09:19:55;99764.88;;;29.73;59.20
75312;BME280;63906;55.686;37.532;2023-08-06T09:24:56;99728.19;;;29.84;56.43
75312;BME280;63906;55.686;37.532;2023-08-06T09:29:57;99720.09;;;30.01;59.03
75312;BME280;63906;55.686;37.532;2023-08-06T09:34:57;99746.88;;;30.51;54.70
75312;BME280;63906;55.686;37.532;2023-08-06T09:39:58;99752.44;;;30.55;55.64
75312;BME280;63906;55.686;37.532;2023-08-06T09:45:06;99737.09;;;30.85;52.51
75312;BME280;63906;55.686;37.532;2023-08-06T09:50:18;99736.91;;;31.07;48.67
75312;BME280;63906;55.686;37.532;2023-08-06T09:55:19;99699.13;;;31.32;51.45
75312;BME280;63906;55.686;37.532;2023-08-06T10:00:20;99693.88;;;31.86;52.43
75312;BME280;63906;55.686;37.532;2023-08-06T10:05:21;99715.63;;;32.99;50.61
75312;BME280;63906;55.686;37.532;2023-08-06T10:10:21;99699.41;;;33.27;46.82
75312;BME280;63906;55.686;37.532;2023-08-06T10:15:28;99682.41;;;34.19;43.59
75312;BME280;63906;55.686;37.532;2023-08-06T10:20:36;99691.59;;;35.11;44.87
75312;BME280;63906;55.686;37.532;2023-08-06T10:25:41;99692.75;;;37.09;36.98
75312;BME280;63906;55.686;37.532;2023-08-06T10:30:44;99684.34;;;39.01;38.69
75312;BME280;63906;55.686;37.532;2023-08-06T10:35:47;99671.19;;;40.99;32.37
75312;BME280;63906;55.686;37.532;2023-08-06T10:45:54;99652.09;;;42.01;30.16
75312;BME280;63906;55.686;37.532;2023-08-06T10:50:55;99648.97;;;41.92;26.11
75312;BME280;63906;55.686;37.532;2023-08-06T10:55:56;99647.31;;;40.13;27.63
75312;BME280;63906;55.686;37.532;2023-08-06T11:00:58;99641.88;;;40.41;26.88
75312;BME280;63906;55.686;37.532;2023-08-06T11:05:59;99637.81;;;42.13;27.16
75312;BME280;63906;55.686;37.532;2023-08-06T11:11:14;99660.94;;;43.11;26.27
75312;BME280;63906;55.686;37.532;2023-08-06T11:16:19;99658.06;;;45.35;24.39
75312;BME280;63906;55.686;37.532;2023-08-06T11:21:21;99661.44;;;45.23;23.79
75312;BME280;63906;55.686;37.532;2023-08-06T11:26:22;99640.94;;;42.26;25.41
75312;BME280;63906;55.686;37.532;2023-08-06T11:31:23;99644.44;;;43.00;24.33
75312;BME280;63906;55.686;37.532;2023-08-06T11:36:36;99622.75;;;44.04;22.99
75312;BME280;63906;55.686;37.532;2023-08-06T11:41:39;99640.03;;;43.47;22.60
75312;BME280;63906;55.686;37.532;2023-08-06T11:46:58;99618.06;;;43.98;22.67
75312;BME280;63906;55.686;37.532;2023-08-06T11:52:08;99633.59;;;43.54;22.38
75312;BME280;63906;55.686;37.532;2023-08-06T11:57:10;99626.88;;;43.17;23.07
75312;BME280;63906;55.686;37.532;2023-08-06T12:02:11;99613.88;;;42.59;23.46
75312;BME280;63906;55.686;37.532;2023-08-06T12:07:11;99624.44;;;44.25;21.79
75312;BME280;63906;55.686;37.532;2023-08-06T12:12:12;99608.31;;;45.18;20.61
75312;BME280;63906;55.686;37.532;2023-08-06T12:17:12;99571.06;;;44.41;20.74
75312;BME280;63906;55.686;37.532;2023-08-06T12:22:13;99586.66;;;45.29;19.07
75312;BME280;63906;55.686;37.532;2023-08-06T12:27:14;99575.56;;;46.41;20.11
75312;BME280;63906;55.686;37.532;2023-08-06T12:32:18;99587.81;;;46.92;17.69
75312;BME280;63906;55.686;37.532;2023-08-06T12:37:19;99604.88;;;46.46;19.12
75312;BME280;63906;55.686;37.532;2023-08-06T12:42:20;99594.69;;;47.33;18.50
75312;BME280;63906;55.686;37.532;2023-08-06T12:47:21;99585.06;;;47.21;17.78
75312;BME280;63906;55.686;37.532;2023-08-06T12:52:21;99566.50;;;45.84;18.80
75312;BME280;63906;55.686;37.532;2023-08-06T12:57:21;99570.50;;;45.00;19.78
75312;BME280;63906;55.686;37.532;2023-08-06T13:02:22;99556.81;;;43.51;21.16
75312;BME280;63906;55.686;37.532;2023-08-06T13:07:22;99553.53;;;44.21;21.08
75312;BME280;63906;55.686;37.532;2023-08-06T13:12:23;99569.59;;;44.83;20.32
75312;BME280;63906;55.686;37.532;2023-08-06T13:17:24;99553.19;;;45.36;19.53
75312;BME280;63906;55.686;37.532;2023-08-06T13:22:24;99566.03;;;45.26;19.78
75312;BME280;63906;55.686;37.532;2023-08-06T13:27:25;99542.28;;;44.55;20.25
75312;BME280;63906;55.686;37.532;2023-08-06T13:32:25;99544.13;;;42.74;22.32
75312;BME280;63906;55.686;37.532;2023-08-06T13:37:26;99555.22;;;40.71;25.00
75312;BME280;63906;55.686;37.532;2023-08-06T13:42:26;99553.53;;;40.13;25.80
75312;BME280;63906;55.686;37.532;2023-08-06T13:47:27;99527.00;;;39.65;26.71
75312;BME280;63906;55.686;37.532;2023-08-06T13:52:27;99513.34;;;38.59;27.32
75312;BME280;63906;55.686;37.532;2023-08-06T13:57:28;99545.59;;;37.27;28.97
75312;BME280;63906;55.686;37.532;2023-08-06T14:02:28;99541.28;;;36.54;30.58
75312;BME280;63906;55.686;37.532;2023-08-06T14:07:29;99541.19;;;35.50;33.25
75312;BME280;63906;55.686;37.532;2023-08-06T14:12:30;99521.44;;;34.14;34.65
75312;BME280;63906;55.686;37.532;2023-08-06T14:17:31;99541.75;;;33.73;35.95
75312;BME280;63906;55.686;37.532;2023-08-06T14:22:31;99515.75;;;33.39;36.51
75312;BME280;63906;55.686;37.532;2023-08-06T14:27:32;99513.09;;;33.02;36.89
75312;BME280;63906;55.686;37.532;2023-08-06T14:32:35;99523.09;;;32.74;37.07
75312;BME280;63906;55.686;37.532;2023-08-06T14:37:36;99530.88;;;32.05;38.74
75312;BME280;63906;55.686;37.532;2023-08-06T14:42:37;99530.38;;;32.03;38.71
75312;BME280;63906;55.686;37.532;2023-08-06T14:47:37;99525.31;;;31.81;39.71
75312;BME280;63906;55.686;37.532;2023-08-06T14:52:40;99505.53;;;31.51;40.64
75312;BME280;63906;55.686;37.532;2023-08-06T14:57:40;99528.69;;;31.57;40.76
75312;BME280;63906;55.686;37.532;2023-08-06T15:02:41;99524.63;;;31.84;40.39
75312;BME280;63906;55.686;37.532;2023-08-06T15:07:41;99531.91;;;31.71;41.01
75312;BME280;63906;55.686;37.532;2023-08-06T15:12:42;99535.09;;;31.31;42.12
75312;BME280;63906;55.686;37.532;2023-08-06T15:17:45;99510.72;;;31.05;43.68
75312;BME280;63906;55.686;37.532;2023-08-06T15:22:46;99540.69;;;30.97;42.74
75312;BME280;63906;55.686;37.532;2023-08-06T15:27:46;99544.63;;;30.78;43.13
75312;BME280;63906;55.686;37.532;2023-08-06T15:32:47;99522.13;;;30.61;44.49
75312;BME280;63906;55.686;37.532;2023-08-06T15:37:48;99529.03;;;30.49;45.22
75312;BME280;63906;55.686;37.532;2023-08-06T15:42:49;99528.91;;;30.37;45.19
75312;BME280;63906;55.686;37.532;2023-08-06T15:47:49;99523.53;;;30.20;44.99
75312;BME280;63906;55.686;37.532;2023-08-06T15:52:50;99528.00;;;30.16;45.08
75312;BME280;63906;55.686;37.532;2023-08-06T15:57:50;99526.69;;;30.04;45.10
75312;BME280;63906;55.686;37.532;2023-08-06T16:02:51;99520.66;;;29.90;45.74
75312;BME280;63906;55.686;37.532;2023-08-06T16:07:52;99500.22;;;29.67;46.07
75312;BME280;63906;55.686;37.532;2023-08-06T16:12:55;99448.66;;;29.23;45.54
75312;BME280;63906;55.686;37.532;2023-08-06T16:17:55;99530.34;;;29.48;46.47
75312;BME280;63906;55.686;37.532;2023-08-06T16:22:55;99541.03;;;29.27;47.00
75312;BME280;63906;55.686;37.532;2023-08-06T16:27:56;99525.97;;;29.04;47.85
75312;BME280;63906;55.686;37.532;2023-08-06T16:32:57;99534.13;;;28.81;47.94
75312;BME280;63906;55.686;37.532;2023-08-06T16:37:57;99532.66;;;28.66;48.52
75312;BME280;63906;55.686;37.532;2023-08-06T16:42:59;99548.00;;;28.49;48.86
75312;BME280;63906;55.686;37.532;2023-08-06T16:47:59;99546.00;;;28.32;49.79
75312;BME280;63906;55.686;37.532;2023-08-06T16:53:00;99526.38;;;28.04;50.11
75312;BME280;63906;55.686;37.532;2023-08-06T16:58:00;99556.63;;;28.06;50.51
75312;BME280;63906;55.686;37.532;2023-08-06T17:03:01;99537.41;;;27.57;52.35
75312;BME280;63906;55.686;37.532;2023-08-06T17:08:02;99520.53;;;26.69;57.83
75312;BME280;63906;55.686;37.532;2023-08-06T17:13:03;99551.59;;;26.20;66.24
75312;BME280;63906;55.686;37.532;2023-08-06T17:18:04;99549.97;;;25.87;70.13
75312;BME280;63906;55.686;37.532;2023-08-06T17:23:04;99544.47;;;25.54;72.85
75312;BME280;63906;55.686;37.532;2023-08-06T17:28:05;99551.44;;;25.36;75.17
75312;BME280;63906;55.686;37.532;2023-08-06T17:33:06;99514.13;;;25.01;77.79
75312;BME280;63906;55.686;37.532;2023-08-06T17:38:10;99544.53;;;25.06;80.13
75312;BME280;63906;55.686;37.532;2023-08-06T17:43:11;99540.28;;;25.00;75.60
75312;BME280;63906;55.686;37.532;2023-08-06T17:48:12;99536.53;;;24.96;81.76
75312;BME280;63906;55.686;37.532;2023-08-06T17:53:18;99529.50;;;24.76;82.15
75312;BME280;63906;55.686;37.532;2023-08-06T17:58:19;99545.09;;;24.79;82.78
75312;BME280;63906;55.686;37.532;2023-08-06T18:03:19;99535.31;;;24.59;84.29
75312;BME280;63906;55.686;37.532;2023-08-06T18:08:20;99550.47;;;24.50;85.24
75312;BME280;63906;55.686;37.532;2023-08-06T18:13:23;99508.78;;;24.13;84.82
75312;BME280;63906;55.686;37.532;2023-08-06T18:18:24;99559.69;;;24.44;84.49
75312;BME280;63906;55.686;37.532;2023-08-06T18:23:25;99546.56;;;24.32;84.68
75312;BME280;63906;55.686;37.532;2023-08-06T18:28:26;99555.72;;;24.31;83.39
75312;BME280;63906;55.686;37.532;2023-08-06T18:33:26;99557.66;;;24.26;85.39
75312;BME280;63906;55.686;37.532;2023-08-06T18:38:27;99559.91;;;24.13;85.71
75312;BME280;63906;55.686;37.532;2023-08-06T18:43:30;99558.34;;;24.02;85.74
75312;BME280;63906;55.686;37.532;2023-08-06T18:48:31;99513.72;;;23.67;87.85
75312;BME280;63906;55.686;37.532;2023-08-06T18:53:34;99536.78;;;23.73;85.73
75312;BME280;63906;55.686;37.532;2023-08-06T18:58:35;99534.91;;;23.74;87.02
75312;BME280;63906;55.686;37.532;2023-08-06T19:03:35;99536.00;;;23.73;88.72
75312;BME280;63906;55.686;37.532;2023-08-06T19:08:36;99542.72;;;23.70;86.49
75312;BME280;63906;55.686;37.532;2023-08-06T19:13:39;99509.44;;;23.61;88.50
75312;BME280;63906;55.686;37.532;2023-08-06T19:18:39;99537.59;;;23.74;89.05
75312;BME280;63906;55.686;37.532;2023-08-06T19:23:40;99514.25;;;23.59;86.88
75312;BME280;63906;55.686;37.532;2023-08-06T19:28:41;99526.59;;;23.70;87.72
75312;BME280;63906;55.686;37.532;2023-08-06T19:33:41;99538.72;;;23.68;88.43
75312;BME280;63906;55.686;37.532;2023-08-06T19:38:42;99532.84;;;23.50;88.94
75312;BME280;63906;55.686;37.532;2023-08-06T19:43:42;99532.88;;;23.45;86.58
75312;BME280;63906;55.686;37.532;2023-08-06T19:48:43;99546.00;;;23.52;88.35
75312;BME280;63906;55.686;37.532;2023-08-06T19:53:44;99535.59;;;23.40;84.44
75312;BME280;63906;55.686;37.532;2023-08-06T19:58:44;99528.59;;;23.39;85.81
75312;BME280;63906;55.686;37.532;2023-08-06T20:03:45;99536.16;;;23.37;86.05
75312;BME280;63906;55.686;37.532;2023-08-06T20:08:45;99514.78;;;23.06;82.15
75312;BME280;63906;55.686;37.532;2023-08-06T20:13:46;99535.66;;;23.30;81.85
75312;BME280;63906;55.686;37.532;2023-08-06T20:18:46;99522.47;;;23.28;86.40
75312;BME280;63906;55.686;37.532;2023-08-06T20:23:47;99526.75;;;23.34;84.83
75312;BME280;63906;55.686;37.532;2023-08-06T20:28:48;99535.03;;;23.43;80.02
75312;BME280;63906;55.686;37.532;2023-08-06T20:33:48;99514.59;;;23.47;83.06
75312;BME280;63906;55.686;37.532;2023-08-06T20:38:49;99539.81;;;23.61;84.02
75312;BME280;63906;55.686;37.532;2023-08-06T20:43:49;99526.88;;;23.58;81.59
75312;BME280;63906;55.686;37.532;2023-08-06T20:48:50;99519.34;;;23.66;79.05
75312;BME280;63906;55.686;37.532;2023-08-06T20:53:50;99519.28;;;23.76;79.40
75312;BME280;63906;55.686;37.532;2023-08-06T20:58:51;99516.59;;;23.76;82.10
75312;BME280;63906;55.686;37.532;2023-08-06T21:03:51;99537.97;;;23.96;79.70
75312;BME280;63906;55.686;37.532;2023-08-06T21:08:52;99544.94;;;23.97;80.60
75312;BME280;63906;55.686;37.532;2023-08-06T21:13:52;99543.03;;;24.03;81.53
75312;BME280;63906;55.686;37.532;2023-08-06T21:18:53;99533.63;;;24.05;81.15
75312;BME280;63906;55.686;37.532;2023-08-06T21:23:53;99548.59;;;24.16;81.71
75312;BME280;63906;55.686;37.532;2023-08-06T21:28:54;99536.81;;;24.07;79.49
75312;BME280;63906;55.686;37.532;2023-08-06T21:33:54;99548.66;;;24.06;78.28
75312;BME280;63906;55.686;37.532;2023-08-06T21:38:55;99549.19;;;24.03;81.89
75312;BME280;63906;55.686;37.532;2023-08-06T21:43:55;99539.88;;;23.90;77.10
75312;BME280;63906;55.686;37.532;2023-08-06T21:48:56;99551.97;;;23.93;79.33
75312;BME280;63906;55.686;37.532;2023-08-06T21:53:59;99504.25;;;23.75;74.54
75312;BME280;63906;55.686;37.532;2023-08-06T21:59:00;99558.31;;;24.07;80.04
75312;BME280;63906;55.686;37.532;2023-08-06T22:04:00;99561.47;;;24.20;82.53
75312;BME280;63906;55.686;37.532;2023-08-06T22:09:01;99529.56;;;24.03;77.68
75312;BME280;63906;55.686;37.532;2023-08-06T22:14:01;99559.28;;;24.22;82.85
75312;BME280;63906;55.686;37.532;2023-08-06T22:19:02;99541.38;;;24.07;80.46
75312;BME280;63906;55.686;37.532;2023-08-06T22:24:02;99527.19;;;24.01;76.11
75312;BME280;63906;55.686;37.532;2023-08-06T22:29:03;99514.13;;;23.84;80.68
75312;BME280;63906;55.686;37.532;2023-08-06T22:34:03;99536.31;;;24.05;79.38
75312;BME280;63906;55.686;37.532;2023-08-06T22:39:04;99519.09;;;24.01;77.21
75312;BME280;63906;55.686;37.532;2023-08-06T22:44:04;99511.06;;;23.96;76.01
75312;BME280;63906;55.686;37.532;2023-08-06T22:49:05;99526.34;;;24.06;76.68
75312;BME280;63906;55.686;37.532;2023-08-06T22:54:05;99503.94;;;23.81;78.51
75312;BME280;63906;55.686;37.532;2023-08-06T22:59:06;99530.44;;;23.98;77.46
75312;BME280;63906;55.686;37.532;2023-08-06T23:04:06;99518.91;;;23.93;76.98
75312;BME280;63906;55.686;37.532;2023-08-06T23:09:07;99533.97;;;23.94;75.54
75312;BME280;63906;55.686;37.532;2023-08-06T23:14:07;99522.94;;;23.90;73.17
75312;BME280;63906;55.686;37.532;2023-08-06T23:19:08;99538.44;;;24.03;78.19
75312;BME280;63906;55.686;37.532;2023-08-06T23:24:08;99518.69;;;23.84;79.06
75312;BME280;63906;55.686;37.532;2023-08-06T23:29:09;99496.00;;;23.61;77.56
75312;BME280;63906;55.686;37.532;2023-08-06T23:34:09;99521.44;;;23.79;73.95
75312;BME280;63906;55.686;37.532;2023-08-06T23:39:10;99521.97;;;23.76;77.34
75312;BME280;63906;55.686;37.532;2023-08-06T23:44:11;99517.69;;;23.75;73.22
75312;BME280;63906;55.686;37.532;2023-08-06T23:49:12;99491.44;;;23.56;77.23
75312;BME280;63906;55.686;37.532;2023-08-06T23:54:13;99512.53;;;23.78;78.81
75312;BME280;63906;55.686;37.532;2023-08-06T23:59:13;99519.78;;;23.83;77.69
